Time;durP1;ratioP1;P1;durP2;ratioP2;P2;SDS_P1;SDS_P2;PMS_P1;PMS_P2;Temp;Humidity;BMP_temperature;BMP_pressure;BME280_temperature;BME280_humidity;BME280_pressure;Samples;Min_cycle;Max_cycle;Signal;HPM_P1;HPM_P2
2024/02/09 00:01:21;;;;;;;4.90;4.40;;;2.10;99.90;;;;;;5157517;27;20454;-76
2024/02/09 00:03:49;;;;;;;5.73;4.23;;;2.10;99.90;;;;;;5176218;27;20426;-76
2024/02/09 00:06:17;;;;;;;5.10;4.60;;;2.10;99.90;;;;;;5176447;27;20466;-76
2024/02/09 00:08:46;;;;;;;5.10;4.70;;;2.10;99.90;;;;;;5157516;27;20444;-76
2024/02/09 00:11:14;;;;;;;4.20;3.80;;;2.20;99.90;;;;;;5157301;27;20636;-76
2024/02/09 00:13:43;;;;;;;5.60;4.00;;;2.10;99.90;;;;;;5157442;27;20439;-76
2024/02/09 00:16:12;;;;;;;4.40;4.00;;;2.20;99.90;;;;;;5157260;27;20555;-75
2024/02/09 00:18:41;;;;;;;4.60;4.13;;;2.10;99.90;;;;;;5157409;27;20440;-76
2024/02/09 00:21:10;;;;;;;5.10;4.33;;;2.20;99.90;;;;;;5176036;27;20432;-76
2024/02/09 00:23:39;;;;;;;4.90;4.40;;;2.10;99.90;;;;;;5157260;27;20471;-76
2024/02/09 00:26:08;;;;;;;3.67;3.30;;;2.20;99.90;;;;;;5175813;27;20533;-76
2024/02/09 00:28:36;;;;;;;3.93;3.07;;;2.20;99.90;;;;;;5157185;27;20483;-77
2024/02/09 00:31:06;;;;;;;3.87;3.27;;;2.20;99.90;;;;;;5175820;27;20914;-76
2024/02/09 00:33:35;;;;;;;3.50;3.17;;;2.20;99.90;;;;;;5157141;27;20542;-76
2024/02/09 00:36:04;;;;;;;3.60;3.30;;;2.20;99.90;;;;;;5157000;27;20462;-76
2024/02/09 00:38:35;;;;;;;4.53;4.13;;;2.20;99.90;;;;;;5157142;27;20444;-76
2024/02/09 00:41:06;;;;;;;2.90;2.40;;;2.20;99.90;;;;;;5157139;27;20448;-76
2024/02/09 00:43:35;;;;;;;3.00;2.70;;;2.20;99.90;;;;;;5158184;27;20439;-76
2024/02/09 00:46:03;;;;;;;3.23;2.93;;;2.20;99.90;;;;;;5156949;27;20992;-77
2024/02/09 00:48:33;;;;;;;3.70;2.93;;;2.20;99.90;;;;;;5175755;27;20435;-76
2024/02/09 00:51:02;;;;;;;2.80;2.60;;;2.30;99.90;;;;;;5157103;27;20451;-76
2024/02/09 00:53:30;;;;;;;2.47;2.27;;;2.20;99.90;;;;;;5175896;27;20446;-76
2024/02/09 00:55:59;;;;;;;2.70;2.33;;;2.30;99.90;;;;;;5175552;27;20460;-76
2024/02/09 00:58:27;;;;;;;3.00;2.70;;;2.30;99.90;;;;;;5156914;27;20451;-76
2024/02/09 01:00:56;;;;;;;2.70;2.50;;;2.30;99.90;;;;;;5156897;27;20518;-75
2024/02/09 01:03:25;;;;;;;2.30;2.03;;;2.30;99.90;;;;;;5156831;27;20464;-76
2024/02/09 01:05:59;;;;;;;2.17;1.97;;;2.30;99.90;;;;;;5175610;27;20806;-76
2024/02/09 01:08:28;;;;;;;2.60;2.37;;;2.30;99.90;;;;;;5175898;27;20419;-76
2024/02/09 01:10:57;;;;;;;2.60;2.20;;;2.30;99.90;;;;;;5159842;27;20817;-76
2024/02/09 02:47:03;;;;;;;2.17;1.97;;;2.40;99.90;;;;;;5159022;27;20812;-76
2024/02/09 03:06:10;;;;;;;2.23;2.03;;;2.40;99.90;;;;;;5177296;27;20449;-76
2024/02/09 03:08:38;;;;;;;2.50;2.30;;;2.40;99.90;;;;;;5158851;27;20444;-76
2024/02/09 03:11:10;;;;;;;2.67;2.47;;;2.40;99.90;;;;;;5177272;27;20447;-75
2024/02/09 03:13:39;;;;;;;2.50;2.30;;;2.40;99.90;;;;;;5158560;27;20519;-76
2024/02/09 03:16:08;;;;;;;2.40;2.20;;;2.40;99.90;;;;;;5158310;27;20476;-75
2024/02/09 03:18:39;;;;;;;3.23;2.93;;;2.40;99.90;;;;;;5158337;27;20500;-76
2024/02/09 03:21:07;;;;;;;2.60;2.40;;;2.40;99.90;;;;;;5158414;27;20950;-76
2024/02/09 03:23:36;;;;;;;2.47;2.27;;;2.40;99.90;;;;;;5158315;27;20432;-76
2024/02/09 03:26:04;;;;;;;2.67;2.47;;;2.40;99.90;;;;;;5158136;27;20456;-75
2024/02/09 03:28:32;;;;;;;3.17;2.97;;;2.40;99.90;;;;;;5158139;27;20444;-75
2024/02/09 03:31:00;;;;;;;2.80;2.57;;;2.40;99.90;;;;;;5158048;27;20451;-75
2024/02/09 03:33:30;;;;;;;3.33;3.03;;;2.40;99.90;;;;;;5176316;27;20432;-75
2024/02/09 03:35:58;;;;;;;3.33;3.03;;;2.40;99.90;;;;;;5176521;27;20456;-76
2024/02/09 03:38:27;;;;;;;3.50;3.20;;;2.40;99.90;;;;;;5157915;27;20978;-76
2024/02/09 03:40:55;;;;;;;3.30;3.00;;;2.40;99.90;;;;;;5176929;27;20531;-75
2024/02/09 03:43:23;;;;;;;3.50;3.20;;;2.40;99.90;;;;;;5157850;27;20440;-75
2024/02/09 03:45:51;;;;;;;4.03;3.63;;;2.40;99.90;;;;;;5176585;27;20845;-76
2024/02/09 03:48:19;;;;;;;4.43;3.23;;;2.40;99.90;;;;;;5176793;27;20917;-76
2024/02/09 03:50:49;;;;;;;3.47;3.17;;;2.40;99.90;;;;;;5176417;27;20482;-76
2024/02/09 03:53:18;;;;;;;3.90;3.60;;;2.40;99.90;;;;;;5157733;27;20463;-76
2024/02/09 03:55:46;;;;;;;4.20;3.80;;;2.40;99.90;;;;;;5176295;27;20459;-76
2024/02/09 03:58:17;;;;;;;3.73;3.43;;;2.40;99.90;;;;;;5157514;27;20483;-76
2024/02/09 04:00:45;;;;;;;3.90;3.60;;;2.40;99.90;;;;;;5176556;27;20909;-76
2024/02/09 04:03:15;;;;;;;3.77;3.47;;;2.50;99.90;;;;;;5176480;27;20497;-76
2024/02/09 04:05:43;;;;;;;4.30;3.90;;;2.50;99.90;;;;;;5157515;27;20869;-76
2024/02/09 04:08:13;;;;;;;4.87;4.47;;;2.50;99.90;;;;;;5176179;27;20527;-76
2024/02/09 04:10:41;;;;;;;3.50;3.20;;;2.50;99.90;;;;;;5157495;27;20505;-76
2024/02/09 04:13:13;;;;;;;5.23;4.77;;;2.50;99.90;;;;;;5176582;27;20440;-76
2024/02/09 04:15:42;;;;;;;5.63;4.97;;;2.40;99.90;;;;;;5157306;27;20462;-76
2024/02/09 04:18:10;;;;;;;4.93;4.43;;;2.50;99.90;;;;;;5175960;27;20889;-76
2024/02/09 04:20:39;;;;;;;5.37;4.87;;;2.50;99.90;;;;;;5176021;27;20925;-76
2024/02/09 04:23:10;;;;;;;5.67;5.13;;;2.50;99.90;;;;;;5157686;27;20480;-76
2024/02/09 04:25:43;;;;;;;5.70;5.20;;;2.50;99.90;;;;;;5176421;27;20448;-76
2024/02/09 04:28:12;;;;;;;4.63;4.23;;;2.50;99.90;;;;;;5157995;27;20865;-76
2024/02/09 04:30:46;;;;;;;4.87;4.47;;;2.50;99.90;;;;;;5157916;27;20439;-76
2024/02/09 04:33:15;;;;;;;4.87;4.47;;;2.50;99.90;;;;;;5176618;27;20488;-76
2024/02/09 04:35:45;;;;;;;5.10;4.70;;;2.50;99.90;;;;;;5157505;27;20825;-76
2024/02/09 04:38:15;;;;;;;5.50;5.00;;;2.50;99.90;;;;;;5157163;27;20460;-76
2024/02/09 04:40:45;;;;;;;5.33;4.63;;;2.50;99.90;;;;;;5157304;27;20503;-76
2024/02/09 04:43:13;;;;;;;5.63;5.13;;;2.50;99.90;;;;;;5157321;27;20441;-76
2024/02/09 04:45:42;;;;;;;5.10;4.60;;;2.50;99.90;;;;;;5161385;27;20885;-76
2024/02/09 04:48:10;;;;;;;4.83;4.43;;;2.50;99.90;;;;;;5161507;27;20491;-76
2024/02/09 04:50:39;;;;;;;5.37;4.87;;;2.50;99.90;;;;;;5161301;27;20443;-76
2024/02/09 04:53:07;;;;;;;4.60;4.20;;;2.50;99.90;;;;;;5179926;27;20817;-76
2024/02/09 04:55:36;;;;;;;5.63;5.13;;;2.50;99.90;;;;;;5179927;27;20551;-76
2024/02/09 04:58:07;;;;;;;5.33;4.83;;;2.50;99.90;;;;;;5160994;27;20482;-76
2024/02/09 05:00:36;;;;;;;6.00;5.50;;;2.50;99.90;;;;;;5179908;27;20440;-76
2024/02/09 05:03:05;;;;;;;5.47;4.97;;;2.50;99.90;;;;;;5161028;27;20447;-76
2024/02/09 05:05:33;;;;;;;6.10;5.60;;;2.50;99.90;;;;;;5160883;27;20451;-76
2024/02/09 05:08:02;;;;;;;4.77;4.33;;;2.50;99.90;;;;;;5160955;27;20540;-76
2024/02/09 05:10:31;;;;;;;5.53;5.13;;;2.50;99.90;;;;;;5179607;27;20429;-76
2024/02/09 05:13:02;;;;;;;4.37;3.97;;;2.50;99.90;;;;;;5160847;27;20440;-76
2024/02/09 05:15:33;;;;;;;4.23;3.90;;;2.50;99.90;;;;;;5160906;27;20468;-76
2024/02/09 05:18:01;;;;;;;5.13;4.67;;;2.50;99.90;;;;;;5160716;27;20894;-76
2024/02/09 05:20:30;;;;;;;4.87;4.47;;;2.50;99.90;;;;;;5160662;27;20440;-76
2024/02/09 05:22:58;;;;;;;4.73;4.33;;;2.50;99.90;;;;;;5160692;27;20448;-76
2024/02/09 05:25:26;;;;;;;5.07;4.67;;;2.50;99.90;;;;;;5160469;27;20460;-76
2024/02/09 05:27:55;;;;;;;4.40;4.00;;;2.50;99.90;;;;;;5179324;27;20816;-76
2024/02/09 05:30:24;;;;;;;4.40;4.00;;;2.50;99.90;;;;;;5179255;27;20428;-76
2024/02/09 05:32:55;;;;;;;4.73;4.33;;;2.50;99.90;;;;;;5179202;27;20444;-76
2024/02/09 05:35:23;;;;;;;4.37;3.97;;;2.50;99.90;;;;;;5179239;27;20452;-76
2024/02/09 05:37:51;;;;;;;4.43;4.03;;;2.50;99.90;;;;;;5179305;27;20558;-76
2024/02/09 05:40:20;;;;;;;4.10;3.80;;;2.50;99.90;;;;;;5160323;27;20961;-76
2024/02/09 05:42:48;;;;;;;3.90;3.50;;;2.50;99.90;;;;;;5160349;27;20459;-76
2024/02/09 05:45:16;;;;;;;4.13;3.77;;;2.50;99.90;;;;;;5178820;27;20504;-76
2024/02/09 05:47:45;;;;;;;4.50;4.10;;;2.50;99.90;;;;;;5160258;27;21000;-75
2024/02/09 05:50:14;;;;;;;4.30;3.90;;;2.50;99.90;;;;;;5160135;27;20446;-76
2024/02/09 05:52:56;;;;;;;4.17;3.87;;;2.50;99.90;;;;;;5160124;27;20479;-76
2024/02/09 05:55:25;;;;;;;4.53;4.13;;;2.50;99.90;;;;;;5177928;27;20466;-76
2024/02/09 05:57:54;;;;;;;5.57;5.07;;;2.50;99.90;;;;;;5160004;27;20468;-76
2024/02/09 06:00:24;;;;;;;4.30;3.90;;;2.50;99.90;;;;;;5159912;27;20455;-76
2024/02/09 06:02:53;;;;;;;4.90;4.50;;;2.60;99.90;;;;;;5159899;27;21002;-76
2024/02/09 06:05:24;;;;;;;4.97;4.57;;;2.60;99.90;;;;;;5159796;27;20464;-76
2024/02/09 06:07:52;;;;;;;5.50;5.00;;;2.50;99.90;;;;;;5159827;27;20502;-76
2024/02/09 06:10:20;;;;;;;5.00;4.60;;;2.60;99.90;;;;;;5159738;27;20527;-76
2024/02/09 06:12:48;;;;;;;4.93;4.40;;;2.60;99.90;;;;;;5178346;27;20455;-76
2024/02/09 06:15:17;;;;;;;4.23;3.90;;;2.60;99.90;;;;;;5178234;27;20451;-76
2024/02/09 06:17:46;;;;;;;4.70;4.30;;;2.60;99.90;;;;;;5178244;27;20463;-76
2024/02/09 06:20:22;;;;;;;4.60;4.20;;;2.60;99.90;;;;;;5178247;27;20428;-76
2024/02/09 06:22:52;;;;;;;4.90;4.33;;;2.60;99.90;;;;;;5178229;27;20413;-76
2024/02/09 06:25:27;;;;;;;4.33;3.93;;;2.60;99.90;;;;;;5178118;27;20451;-76
2024/02/09 06:27:56;;;;;;;4.90;4.50;;;2.50;99.90;;;;;;5159289;27;20446;-76
2024/02/09 06:30:24;;;;;;;4.60;4.20;;;2.60;99.90;;;;;;5159356;27;20475;-76
2024/02/09 06:32:52;;;;;;;4.80;4.30;;;2.60;99.90;;;;;;5178206;27;20436;-76
2024/02/09 06:35:20;;;;;;;4.70;4.30;;;2.60;99.90;;;;;;5177866;27;20796;-76
2024/02/09 06:37:50;;;;;;;4.50;4.10;;;2.60;99.90;;;;;;5159101;27;20469;-76
2024/02/09 06:40:20;;;;;;;4.30;3.90;;;2.60;99.90;;;;;;5159100;27;20444;-76
2024/02/09 06:42:49;;;;;;;5.33;4.83;;;2.60;99.90;;;;;;5177750;27;20451;-76
2024/02/09 06:45:17;;;;;;;4.60;4.20;;;2.60;99.90;;;;;;5177713;27;20448;-76
2024/02/09 06:47:45;;;;;;;4.77;4.37;;;2.60;99.90;;;;;;5159569;27;20842;-77
2024/02/09 06:50:13;;;;;;;6.10;5.50;;;2.60;99.90;;;;;;5177759;27;20436;-77
2024/02/09 06:52:42;;;;;;;5.40;4.83;;;2.60;99.90;;;;;;5177634;27;20433;-76
2024/02/09 06:55:11;;;;;;;4.90;4.50;;;2.60;99.90;;;;;;5158950;27;20488;-76
2024/02/09 06:57:46;;;;;;;5.33;4.83;;;2.60;99.90;;;;;;5158781;27;20456;-76
2024/02/09 07:00:15;;;;;;;5.90;5.40;;;2.60;99.90;;;;;;5177665;27;20909;-77
2024/02/09 07:02:46;;;;;;;7.60;6.97;;;2.60;99.90;;;;;;5177492;27;20497;-77
2024/02/09 07:05:15;;;;;;;5.60;5.10;;;2.60;99.90;;;;;;5158621;27;20882;-76
2024/02/09 07:07:45;;;;;;;8.73;7.60;;;2.70;99.90;;;;;;5157589;27;20443;-77
2024/02/09 07:10:16;;;;;;;6.60;5.93;;;2.70;99.90;;;;;;5158605;27;20436;-77
2024/02/09 07:12:47;;;;;;;6.80;4.63;;;2.60;99.90;;;;;;5158538;27;20443;-76
2024/02/09 07:15:16;;;;;;;5.13;4.73;;;2.70;99.90;;;;;;5177497;27;20858;-76
2024/02/09 07:17:45;;;;;;;5.80;5.30;;;2.70;99.90;;;;;;5177084;27;20436;-77
2024/02/09 07:20:16;;;;;;;5.67;5.17;;;2.70;99.90;;;;;;5158330;27;21072;-76
2024/02/09 07:22:47;;;;;;;5.33;4.83;;;2.70;99.90;;;;;;5158379;27;20442;-77
2024/02/09 07:25:15;;;;;;;6.13;5.53;;;2.70;99.90;;;;;;5158234;27;20893;-76
2024/02/09 07:27:46;;;;;;;6.00;5.50;;;2.70;99.90;;;;;;5158248;27;20492;-77
2024/02/09 07:30:17;;;;;;;5.07;4.67;;;2.70;99.90;;;;;;5158244;27;20856;-76
2024/02/09 07:32:45;;;;;;;5.30;4.80;;;2.70;99.90;;;;;;5158266;27;20874;-77
2024/02/09 07:35:14;;;;;;;6.03;5.53;;;2.70;99.90;;;;;;5158236;27;20817;-76
2024/02/09 07:37:42;;;;;;;6.50;5.97;;;2.70;99.90;;;;;;5177363;27;20472;-77
2024/02/09 07:40:16;;;;;;;5.80;5.30;;;2.70;99.90;;;;;;5177056;27;20477;-77
2024/02/09 07:42:46;;;;;;;5.37;4.90;;;2.70;99.90;;;;;;5158945;27;20458;-76
2024/02/09 07:45:16;;;;;;;6.13;5.53;;;2.70;99.90;;;;;;5157815;27;21016;-77
2024/02/09 07:47:45;;;;;;;6.20;5.67;;;2.70;99.90;;;;;;5158196;27;20987;-77
2024/02/09 07:50:14;;;;;;;5.80;5.20;;;2.70;99.90;;;;;;5157769;27;20976;-76
2024/02/09 07:52:42;;;;;;;5.60;5.00;;;2.80;99.90;;;;;;5157783;27;20448;-76
2024/02/09 07:55:13;;;;;;;5.00;4.57;;;2.80;99.90;;;;;;5157551;27;20468;-76
2024/02/09 07:57:43;;;;;;;6.23;5.63;;;2.80;99.90;;;;;;5157776;27;20436;-76
2024/02/09 08:00:18;;;;;;;7.60;6.23;;;2.80;99.90;;;;;;5176518;27;20472;-76
2024/02/09 08:02:46;;;;;;;6.73;5.90;;;2.80;99.90;;;;;;5157673;27;20443;-76
2024/02/09 08:05:18;;;;;;;6.73;6.03;;;2.80;99.90;;;;;;5157534;27;20883;-76
2024/02/09 08:07:48;;;;;;;6.60;6.00;;;2.80;99.90;;;;;;5157870;27;20943;-76
2024/02/09 08:10:17;;;;;;;5.67;5.17;;;2.80;99.90;;;;;;5157615;27;20513;-76
2024/02/09 08:12:46;;;;;;;5.83;5.33;;;2.90;99.90;;;;;;5157443;27;20810;-77
2024/02/09 08:15:15;;;;;;;5.57;5.03;;;2.80;99.90;;;;;;5157442;27;20838;-77
2024/02/09 08:17:47;;;;;;;6.23;5.73;;;2.80;99.90;;;;;;5157352;27;20497;-75
2024/02/09 08:20:20;;;;;;;6.20;5.60;;;2.90;99.90;;;;;;5157210;27;20464;-77
2024/02/09 08:22:49;;;;;;;6.60;5.93;;;2.90;99.90;;;;;;5157413;27;20437;-76
2024/02/09 08:25:18;;;;;;;6.07;5.47;;;2.90;99.90;;;;;;5157265;27;20571;-76
2024/02/09 08:27:46;;;;;;;6.27;5.67;;;2.90;99.90;;;;;;5175798;27;20534;-76
2024/02/09 08:30:17;;;;;;;5.60;5.10;;;2.90;99.90;;;;;;5176105;27;20432;-77
2024/02/09 08:32:45;;;;;;;6.77;6.17;;;2.90;99.90;;;;;;5157331;27;20821;-77
2024/02/09 08:35:14;;;;;;;6.97;6.37;;;2.90;99.90;;;;;;5157082;27;20497;-75
2024/02/09 08:37:42;;;;;;;6.57;5.97;;;2.90;99.90;;;;;;5157097;27;21012;-76
2024/02/09 08:40:11;;;;;;;6.10;5.50;;;2.90;99.90;;;;;;5175765;27;20901;-76
2024/02/09 08:42:39;;;;;;;8.37;7.57;;;3.00;99.90;;;;;;5157131;27;20796;-76
2024/02/09 08:45:08;;;;;;;8.07;7.37;;;3.00;99.90;;;;;;5157176;27;20472;-76
2024/02/09 08:47:38;;;;;;;6.30;5.70;;;3.00;99.90;;;;;;5157122;27;20464;-76
2024/02/09 08:50:06;;;;;;;6.20;5.60;;;3.00;99.90;;;;;;5157240;27;20441;-76
2024/02/09 08:52:35;;;;;;;7.13;6.43;;;3.00;99.90;;;;;;5157074;27;20437;-76
2024/02/09 08:55:03;;;;;;;5.93;5.43;;;3.00;99.90;;;;;;5175570;27;20452;-76
2024/02/09 08:57:32;;;;;;;6.70;5.77;;;3.00;99.90;;;;;;5156949;27;20441;-76
2024/02/09 09:00:00;;;;;;;6.20;5.60;;;3.00;99.90;;;;;;5156913;27;20461;-75
2024/02/09 09:02:29;;;;;;;6.43;5.83;;;3.00;99.90;;;;;;5156961;27;20451;-76
2024/02/09 09:04:59;;;;;;;7.00;6.30;;;3.10;99.90;;;;;;5175892;27;20574;-76
2024/02/09 09:07:28;;;;;;;7.40;6.70;;;3.10;99.90;;;;;;5157001;27;20452;-76
2024/02/09 09:09:56;;;;;;;7.60;6.90;;;3.10;99.90;;;;;;5175981;27;20432;-77
2024/02/09 09:12:26;;;;;;;6.47;5.87;;;3.10;99.90;;;;;;5157254;27;20443;-76
2024/02/09 09:14:53;;;;;;;7.57;6.87;;;3.10;99.90;;;;;;5156971;27;20469;-76
2024/02/09 09:17:22;;;;;;;8.80;8.00;;;3.10;99.90;;;;;;5157031;27;20497;-76
2024/02/09 09:19:54;;;;;;;7.47;6.80;;;3.10;99.90;;;;;;5175762;27;20505;-76
2024/02/09 09:22:24;;;;;;;7.67;6.87;;;3.20;99.90;;;;;;5156872;27;20448;-76
2024/02/09 09:24:54;;;;;;;7.13;6.43;;;3.20;99.90;;;;;;5157232;27;20460;-77
2024/02/09 09:27:23;;;;;;;6.47;5.87;;;3.20;99.90;;;;;;5156970;27;20807;-77
2024/02/09 09:29:52;;;;;;;7.13;6.43;;;3.20;99.90;;;;;;5157230;27;20930;-77
2024/02/09 09:32:22;;;;;;;12.47;9.63;;;3.20;99.90;;;;;;5179796;27;20463;-77
2024/02/09 09:34:50;;;;;;;7.60;6.90;;;3.20;99.90;;;;;;5161210;27;20505;-77
2024/02/09 09:37:18;;;;;;;7.53;6.83;;;3.20;99.90;;;;;;5161019;27;20532;-76
2024/02/09 09:39:48;;;;;;;7.13;6.43;;;3.20;99.90;;;;;;5179815;27;20456;-77
2024/02/09 09:42:17;;;;;;;7.47;6.77;;;3.20;99.90;;;;;;5160955;27;20444;-77
2024/02/09 09:44:48;;;;;;;7.37;6.70;;;3.30;99.90;;;;;;5160812;27;20468;-77
2024/02/09 09:47:17;;;;;;;9.90;6.93;;;3.20;99.90;;;;;;5160903;27;20875;-77
2024/02/09 09:49:46;;;;;;;7.43;6.73;;;3.30;99.90;;;;;;5160819;27;20491;-77
2024/02/09 09:52:23;;;;;;;7.93;7.23;;;3.30;99.90;;;;;;5160586;27;20477;-77
2024/02/09 09:54:54;;;;;;;7.00;6.30;;;3.30;99.90;;;;;;5179387;27;20876;-76
2024/02/09 09:57:23;;;;;;;7.90;7.10;;;3.30;99.90;;;;;;5179358;27;20416;-76
2024/02/09 09:59:52;;;;;;;7.00;6.30;;;3.30;99.90;;;;;;5160023;27;20464;-76
2024/02/09 10:02:21;;;;;;;9.57;8.77;;;3.30;99.90;;;;;;5159945;27;20432;-77
2024/02/09 10:04:50;;;;;;;8.03;7.23;;;3.40;99.90;;;;;;5159817;27;20460;-75
2024/02/09 10:07:20;;;;;;;8.87;8.00;;;3.40;99.90;;;;;;5159786;27;20476;-75
2024/02/09 10:09:50;;;;;;;9.10;8.30;;;3.40;99.90;;;;;;5160165;27;20441;-75
2024/02/09 10:12:22;;;;;;;8.20;7.40;;;3.40;99.90;;;;;;5160425;27;20465;-77
2024/02/09 10:14:50;;;;;;;8.20;7.40;;;3.40;99.90;;;;;;5159879;27;20500;-77
2024/02/09 10:17:21;;;;;;;8.23;7.40;;;3.50;99.90;;;;;;5159971;27;20444;-77
2024/02/09 10:19:51;;;;;;;8.50;7.70;;;3.50;99.90;;;;;;5178384;27;20455;-74
2024/02/09 10:22:19;;;;;;;8.50;7.70;;;3.50;99.90;;;;;;5159570;27;20941;-75
2024/02/09 10:24:55;;;;;;;8.93;8.13;;;3.50;99.90;;;;;;5178162;27;20455;-77
2024/02/09 10:27:24;;;;;;;9.00;8.10;;;3.50;99.90;;;;;;5178115;27;20437;-74
2024/02/09 10:29:54;;;;;;;9.40;8.50;;;3.60;99.90;;;;;;5159432;27;20476;-74
2024/02/09 10:32:26;;;;;;;9.67;8.70;;;3.60;99.90;;;;;;5178338;27;20509;-74
2024/02/09 10:34:54;;;;;;;9.67;8.77;;;3.60;99.90;;;;;;5159261;27;20524;-75
2024/02/09 10:37:23;;;;;;;10.73;9.67;;;3.60;99.90;;;;;;5159286;27;20440;-76
2024/02/09 10:39:59;;;;;;;10.50;9.40;;;3.70;99.90;;;;;;5159030;27;20467;-76
2024/02/09 10:42:31;;;;;;;10.20;9.20;;;3.70;99.90;;;;;;5158951;27;20444;-76
2024/02/09 10:44:59;;;;;;;10.30;9.30;;;3.80;99.90;;;;;;5159076;27;20544;-76
2024/02/09 10:47:41;;;;;;;11.07;9.97;;;3.80;99.90;;;;;;5159212;27;20440;-76
2024/02/09 10:50:12;;;;;;;10.97;9.87;;;3.80;99.90;;;;;;5177672;27;20428;-75
2024/02/09 10:52:44;;;;;;;10.50;9.37;;;3.90;99.90;;;;;;5177968;27;20478;-76
2024/02/09 10:55:14;;;;;;;10.10;9.20;;;3.90;99.90;;;;;;5158862;27;20509;-76
2024/02/09 10:57:46;;;;;;;11.00;9.93;;;3.90;99.90;;;;;;5159286;27;20436;-75
2024/02/09 11:00:16;;;;;;;11.17;10.03;;;4.00;99.90;;;;;;5158751;27;20959;-76
2024/02/09 11:02:45;;;;;;;10.83;9.80;;;3.90;99.90;;;;;;5158870;27;20434;-76
2024/02/09 11:05:15;;;;;;;11.30;10.20;;;4.00;99.90;;;;;;5177338;27;21013;-75
2024/02/09 11:07:46;;;;;;;11.40;10.30;;;4.00;99.90;;;;;;5158677;27;20842;-76
2024/02/09 11:10:15;;;;;;;11.83;10.63;;;4.00;99.90;;;;;;5158707;27;20864;-76
2024/02/09 11:12:56;;;;;;;13.20;11.90;;;4.00;99.90;;;;;;5158529;27;20641;-76
2024/02/09 11:15:24;;;;;;;12.00;10.80;;;4.10;99.90;;;;;;5158469;27;20468;-76
2024/02/09 11:17:53;;;;;;;12.03;10.93;;;4.10;99.90;;;;;;5158377;27;20818;-76
2024/02/09 11:20:21;;;;;;;10.77;9.70;;;4.10;99.90;;;;;;5177255;27;20488;-76
2024/02/09 11:22:49;;;;;;;13.63;12.33;;;4.20;99.90;;;;;;5158426;27;20833;-76
2024/02/09 11:25:19;;;;;;;13.83;12.53;;;4.20;99.90;;;;;;5158333;27;20461;-77
2024/02/09 11:27:51;;;;;;;16.00;14.30;;;4.30;99.90;;;;;;5158111;27;20441;-77
2024/02/09 11:30:21;;;;;;;15.23;13.63;;;4.30;99.90;;;;;;5158228;27;20431;-76
2024/02/09 11:32:50;;;;;;;15.27;13.67;;;4.40;99.90;;;;;;5158224;27;20447;-76
2024/02/09 11:35:18;;;;;;;15.70;14.10;;;4.40;99.90;;;;;;5157984;27;20997;-76
2024/02/09 11:37:47;;;;;;;15.83;14.23;;;4.50;99.90;;;;;;5158093;27;20960;-76
2024/02/09 11:40:17;;;;;;;16.07;14.47;;;4.50;99.90;;;;;;5157842;27;20468;-77
2024/02/09 11:42:45;;;;;;;17.70;15.93;;;4.60;99.90;;;;;;5176814;27;20899;-77
2024/02/09 11:45:15;;;;;;;17.10;15.40;;;4.70;99.90;;;;;;5158188;27;20470;-77
2024/02/09 11:47:44;;;;;;;17.27;15.53;;;4.80;99.90;;;;;;5158045;27;20452;-77
2024/02/09 11:50:20;;;;;;;17.23;15.43;;;4.90;99.90;;;;;;5177349;27;20520;-77
2024/02/09 11:52:51;;;;;;;18.93;17.00;;;4.90;99.90;;;;;;5176839;27;20960;-77
2024/02/09 11:55:42;;;;;;;16.70;14.83;;;5.00;99.90;;;;;;5158278;27;20457;-77
2024/02/09 11:58:13;;;;;;;18.20;16.33;;;5.00;99.90;;;;;;5158294;27;20862;-77
2024/02/09 12:00:45;;;;;;;17.60;15.90;;;5.00;99.90;;;;;;5158015;27;20463;-77
2024/02/09 12:03:14;;;;;;;16.70;14.90;;;5.10;99.90;;;;;;5157961;27;20482;-77
2024/02/09 12:05:47;;;;;;;18.00;16.20;;;5.10;99.90;;;;;;5157995;27;20831;-77
2024/02/09 12:08:18;;;;;;;17.03;15.23;;;5.20;99.90;;;;;;5176685;27;20419;-76
2024/02/09 12:10:50;;;;;;;18.83;17.03;;;5.20;99.90;;;;;;5176733;27;20481;-77
2024/02/09 12:13:19;;;;;;;19.80;17.87;;;5.20;99.90;;;;;;5158104;27;20479;-77
2024/02/09 12:15:49;;;;;;;18.33;16.50;;;5.30;99.90;;;;;;5157526;27;20571;-76
2024/02/09 12:18:17;;;;;;;19.23;17.33;;;5.30;99.90;;;;;;5176192;27;20482;-76
2024/02/09 12:20:46;;;;;;;19.40;17.57;;;5.30;99.90;;;;;;5176043;27;20532;-77
2024/02/09 12:23:14;;;;;;;18.80;16.90;;;5.40;99.90;;;;;;5157379;27;20821;-76
2024/02/09 12:25:42;;;;;;;19.47;17.63;;;5.40;99.90;;;;;;5157219;27;20988;-76
2024/02/09 12:28:20;;;;;;;21.70;19.70;;;5.50;99.90;;;;;;5157175;27;20449;-77
2024/02/09 12:30:50;;;;;;;21.27;18.93;;;5.50;99.90;;;;;;5157277;27;20438;-77
2024/02/09 12:33:19;;;;;;;21.73;19.53;;;5.60;99.90;;;;;;5157344;27;20871;-77
2024/02/09 12:35:54;;;;;;;21.13;19.10;;;5.70;99.90;;;;;;5157144;27;21068;-76
2024/02/09 12:38:22;;;;;;;21.47;19.37;;;5.70;99.90;;;;;;5157139;27;20546;-77
2024/02/09 12:40:53;;;;;;;23.40;21.07;;;5.70;99.90;;;;;;5156941;27;20449;-77
2024/02/09 12:43:22;;;;;;;21.97;19.90;;;5.80;99.90;;;;;;5157192;27;20848;-77
2024/02/09 12:45:52;;;;;;;20.90;18.90;;;5.90;99.90;;;;;;5175798;27;20516;-77
2024/02/09 12:48:21;;;;;;;22.07;19.90;;;5.90;99.90;;;;;;5157117;27;20931;-77
2024/02/09 12:50:52;;;;;;;22.40;20.20;;;6.00;99.90;;;;;;5175994;27;20438;-77
2024/02/09 12:53:21;;;;;;;23.97;21.67;;;6.10;99.90;;;;;;5157046;27;20489;-77
2024/02/09 12:55:50;;;;;;;24.50;22.00;;;6.20;99.90;;;;;;5156910;27;20506;-77
2024/02/09 12:58:20;;;;;;;23.00;20.60;;;6.20;99.90;;;;;;5157069;27;20982;-76
2024/02/09 13:00:51;;;;;;;24.07;21.47;;;6.30;99.90;;;;;;5157221;27;20452;-77
2024/02/09 13:03:22;;;;;;;24.37;21.87;;;6.30;99.90;;;;;;5176165;27;20889;-77
2024/02/09 13:05:50;;;;;;;25.40;22.80;;;6.40;99.90;;;;;;5159703;27;20474;-76
2024/02/09 13:08:21;;;;;;;25.63;23.13;;;6.40;99.90;;;;;;5161098;27;20487;-76
2024/02/09 13:10:50;;;;;;;24.03;21.57;;;6.50;99.90;;;;;;5160967;27;20930;-77
2024/02/09 13:13:19;;;;;;;24.77;22.40;;;6.50;99.90;;;;;;5179720;27;20424;-77
2024/02/09 13:15:47;;;;;;;34.30;30.23;;;6.60;99.90;;;;;;5160879;27;20483;-77
2024/02/09 13:18:15;;;;;;;27.40;24.70;;;6.60;99.90;;;;;;5160851;27;20485;-77
2024/02/09 13:20:46;;;;;;;24.20;21.67;;;6.60;99.90;;;;;;5160902;27;20457;-77
2024/02/09 13:23:14;;;;;;;27.30;24.40;;;6.60;99.90;;;;;;5160805;27;20553;-77
2024/02/09 13:25:43;;;;;;;26.17;23.47;;;6.70;99.90;;;;;;5160513;27;20474;-76
2024/02/09 13:28:13;;;;;;;26.07;22.80;;;6.70;99.90;;;;;;5179148;27;20451;-76
2024/02/09 13:30:41;;;;;;;25.07;22.57;;;6.70;99.90;;;;;;5160599;27;20463;-76
2024/02/09 13:33:10;;;;;;;26.67;24.07;;;6.70;99.90;;;;;;5179245;27;20435;-76
2024/02/09 13:35:40;;;;;;;27.70;24.90;;;6.80;99.90;;;;;;5179059;27;20962;-77
2024/02/09 13:38:13;;;;;;;27.83;24.50;;;6.80;99.90;;;;;;5160437;27;20443;-76
2024/02/09 13:40:42;;;;;;;28.07;24.97;;;6.90;99.90;;;;;;5160472;27;20506;-77
2024/02/09 13:43:10;;;;;;;25.97;23.37;;;6.90;99.90;;;;;;5178935;27;20493;-77
2024/02/09 13:45:39;;;;;;;30.00;26.90;;;7.00;99.90;;;;;;5178891;27;20454;-77
2024/02/09 13:48:09;;;;;;;29.97;26.73;;;7.00;99.90;;;;;;5160240;27;20442;-77
2024/02/09 13:50:39;;;;;;;29.50;26.40;;;7.10;99.90;;;;;;5160251;27;20452;-77
2024/02/09 13:53:08;;;;;;;29.40;26.40;;;7.20;99.90;;;;;;5160240;27;20882;-77
2024/02/09 13:55:38;;;;;;;29.00;25.73;;;7.20;99.90;;;;;;5160099;27;20478;-77
2024/02/09 13:58:07;;;;;;;29.43;25.93;;;7.30;99.90;;;;;;5178887;27;20997;-76
2024/02/09 14:00:36;;;;;;;29.07;25.97;;;7.30;99.90;;;;;;5160142;27;20435;-76
2024/02/09 14:03:05;;;;;;;28.30;25.33;;;7.40;99.90;;;;;;5160111;27;20854;-77
2024/02/09 14:05:36;;;;;;;28.20;24.63;;;7.50;99.90;;;;;;5160104;27;20475;-76
2024/02/09 14:08:06;;;;;;;30.17;26.93;;;7.50;99.90;;;;;;5178750;27;20443;-76
2024/02/09 14:10:39;;;;;;;29.73;26.10;;;7.60;99.90;;;;;;5160030;27;20469;-77
2024/02/09 14:13:08;;;;;;;30.77;26.87;;;7.60;99.90;;;;;;5159836;27;20435;-76
2024/02/09 14:15:37;;;;;;;30.93;27.37;;;7.70;99.90;;;;;;5159773;27;20565;-77
2024/02/09 14:18:05;;;;;;;34.27;26.90;;;7.80;99.90;;;;;;5159295;27;20452;-77
2024/02/09 14:20:33;;;;;;;30.47;27.20;;;7.80;99.90;;;;;;5159901;27;20440;-76
2024/02/09 14:23:02;;;;;;;29.77;26.77;;;7.90;99.90;;;;;;5178394;27;20511;-76
2024/02/09 14:25:32;;;;;;;30.70;27.60;;;8.00;99.90;;;;;;5178221;27;20443;-76
2024/02/09 14:28:01;;;;;;;29.67;26.47;;;8.00;99.90;;;;;;5178078;27;20448;-77
2024/02/09 14:30:30;;;;;;;32.37;28.90;;;8.00;99.90;;;;;;5159633;27;20437;-76
2024/02/09 14:33:00;;;;;;;35.10;29.90;;;8.00;99.90;;;;;;5178227;27;20425;-77
2024/02/09 14:35:29;;;;;;;31.10;27.70;;;8.10;99.90;;;;;;5160087;27;21008;-77
2024/02/09 14:37:57;;;;;;;35.90;32.00;;;8.10;99.90;;;;;;5159575;27;20495;-76
2024/02/09 14:40:25;;;;;;;34.57;30.97;;;8.20;99.90;;;;;;5159395;27;20532;-76
2024/02/09 14:42:54;;;;;;;35.10;31.30;;;8.20;99.90;;;;;;5178254;27;20514;-77
2024/02/09 14:45:23;;;;;;;37.47;33.60;;;8.20;99.90;;;;;;5178017;27;21013;-76
2024/02/09 14:47:52;;;;;;;39.90;35.73;;;8.20;99.90;;;;;;5178058;27;20439;-77
2024/02/09 14:50:21;;;;;;;44.70;39.83;;;8.30;99.90;;;;;;5159125;27;20493;-77
2024/02/09 14:52:49;;;;;;;40.80;36.67;;;8.30;99.90;;;;;;5159147;27;20448;-76